sensor_id;sensor_type;location;lat;lon;timestamp;pressure;altitude;pressure_sealevel;temperature;humidity
39243;BME280;29823;47.404;8.566;2023-06-26T00:01:07;96512.75;;;19.91;100.00
39243;BME280;29823;47.404;8.566;2023-06-26T00:03:35;96504.19;;;19.79;100.00
39243;BME280;29823;47.404;8.566;2023-06-26T00:06:04;96523.59;;;19.91;100.00
39243;BME280;29823;47.404;8.566;2023-06-26T00:08:32;96509.59;;;19.79;100.00
39243;BME280;29823;47.404;8.566;2023-06-26T00:11:00;96505.00;;;19.80;100.00
39243;BME280;29823;47.404;8.566;2023-06-26T00:13:28;96514.91;;;19.89;100.00
39243;BME280;29823;47.404;8.566;2023-06-26T00:15:56;96509.31;;;19.81;100.00
39243;BME280;29823;47.404;8.566;2023-06-26T00:18:24;96513.75;;;19.95;100.00
39243;BME280;29823;47.404;8.566;2023-06-26T00:20:52;96516.63;;;19.80;100.00
39243;BME280;29823;47.404;8.566;2023-06-26T00:23:21;96524.44;;;19.87;100.00
39243;BME280;29823;47.404;8.566;2023-06-26T00:25:49;96524.72;;;19.85;100.00
39243;BME280;29823;47.404;8.566;2023-06-26T00:28:17;96533.16;;;19.60;100.00
39243;BME280;29823;47.404;8.566;2023-06-26T00:30:45;96524.28;;;19.78;100.00
39243;BME280;29823;47.404;8.566;2023-06-26T00:33:12;96528.66;;;19.74;100.00
39243;BME280;29823;47.404;8.566;2023-06-26T00:35:40;96530.09;;;19.90;100.00
39243;BME280;29823;47.404;8.566;2023-06-26T00:38:08;96533.19;;;19.84;100.00
39243;BME280;29823;47.404;8.566;2023-06-26T00:40:38;96528.19;;;19.67;100.00
39243;BME280;29823;47.404;8.566;2023-06-26T00:43:06;96540.72;;;19.63;100.00
39243;BME280;29823;47.404;8.566;2023-06-26T00:45:33;96534.06;;;19.74;100.00
39243;BME280;29823;47.404;8.566;2023-06-26T00:48:10;96545.53;;;19.71;100.00
39243;BME280;29823;47.404;8.566;2023-06-26T00:50:38;96532.81;;;19.67;100.00
39243;BME280;29823;47.404;8.566;2023-06-26T00:53:06;96540.31;;;19.51;100.00
39243;BME280;29823;47.404;8.566;2023-06-26T00:55:35;96534.78;;;19.61;100.00
39243;BME280;29823;47.404;8.566;2023-06-26T00:58:04;96528.91;;;19.54;100.00
39243;BME280;29823;47.404;8.566;2023-06-26T01:00:33;96532.50;;;19.45;100.00
39243;BME280;29823;47.404;8.566;2023-06-26T01:03:01;96531.69;;;19.44;100.00
39243;BME280;29823;47.404;8.566;2023-06-26T01:05:29;96538.78;;;19.40;100.00
39243;BME280;29823;47.404;8.566;2023-06-26T01:07:58;96540.84;;;19.20;100.00
39243;BME280;29823;47.404;8.566;2023-06-26T01:10:26;96539.34;;;19.37;100.00
39243;BME280;29823;47.404;8.566;2023-06-26T01:12:55;96549.59;;;19.45;100.00
39243;BME280;29823;47.404;8.566;2023-06-26T01:15:26;96546.06;;;19.45;100.00
39243;BME280;29823;47.404;8.566;2023-06-26T01:17:54;96541.25;;;19.37;100.00
39243;BME280;29823;47.404;8.566;2023-06-26T01:20:30;96542.13;;;19.32;100.00
39243;BME280;29823;47.404;8.566;2023-06-26T01:23:05;96536.22;;;19.25;100.00
39243;BME280;29823;47.404;8.566;2023-06-26T01:25:39;96542.69;;;19.29;100.00
39243;BME280;29823;47.404;8.566;2023-06-26T01:28:13;96542.38;;;19.36;100.00
39243;BME280;29823;47.404;8.566;2023-06-26T01:30:44;96549.50;;;19.27;100.00
39243;BME280;29823;47.404;8.566;2023-06-26T01:33:13;96545.44;;;19.19;100.00
39243;BME280;29823;47.404;8.566;2023-06-26T01:35:42;96550.13;;;19.14;100.00
39243;BME280;29823;47.404;8.566;2023-06-26T01:38:14;96538.47;;;19.13;100.00
39243;BME280;29823;47.404;8.566;2023-06-26T01:40:43;96542.75;;;19.19;100.00
39243;BME280;29823;47.404;8.566;2023-06-26T01:43:18;96530.00;;;19.25;100.00
39243;BME280;29823;47.404;8.566;2023-06-26T01:45:50;96535.75;;;19.13;100.00
39243;BME280;29823;47.404;8.566;2023-06-26T01:48:23;96546.97;;;18.97;100.00
39243;BME280;29823;47.404;8.566;2023-06-26T01:50:54;96543.31;;;18.83;100.00
39243;BME280;29823;47.404;8.566;2023-06-26T01:53:25;96540.09;;;18.81;100.00
39243;BME280;29823;47.404;8.566;2023-06-26T01:55:59;96548.75;;;18.83;100.00
39243;BME280;29823;47.404;8.566;2023-06-26T01:58:31;96537.44;;;18.71;100.00
39243;BME280;29823;47.404;8.566;2023-06-26T02:00:59;96539.91;;;18.67;100.00
39243;BME280;29823;47.404;8.566;2023-06-26T02:03:27;96542.31;;;18.69;100.00
39243;BME280;29823;47.404;8.566;2023-06-26T02:05:56;96554.25;;;18.68;100.00
39243;BME280;29823;47.404;8.566;2023-06-26T02:08:25;96558.28;;;18.75;100.00
39243;BME280;29823;47.404;8.566;2023-06-26T02:10:53;96551.19;;;18.79;100.00
39243;BME280;29823;47.404;8.566;2023-06-26T02:13:20;96545.81;;;18.74;100.00
39243;BME280;29823;47.404;8.566;2023-06-26T02:15:50;96548.50;;;18.79;100.00
39243;BME280;29823;47.404;8.566;2023-06-26T02:18:18;96532.78;;;18.76;100.00
39243;BME280;29823;47.404;8.566;2023-06-26T02:20:47;96538.22;;;18.76;100.00
39243;BME280;29823;47.404;8.566;2023-06-26T02:23:15;96549.44;;;18.60;100.00
39243;BME280;29823;47.404;8.566;2023-06-26T02:25:43;96556.44;;;18.66;100.00
39243;BME280;29823;47.404;8.566;2023-06-26T02:28:11;96554.53;;;18.66;100.00
39243;BME280;29823;47.404;8.566;2023-06-26T02:30:39;96555.81;;;18.79;100.00
39243;BME280;29823;47.404;8.566;2023-06-26T02:33:09;96547.19;;;18.72;100.00
39243;BME280;29823;47.404;8.566;2023-06-26T02:35:37;96552.38;;;18.68;100.00
39243;BME280;29823;47.404;8.566;2023-06-26T02:38:04;96546.00;;;18.44;100.00
39243;BME280;29823;47.404;8.566;2023-06-26T02:40:32;96548.91;;;18.53;100.00
39243;BME280;29823;47.404;8.566;2023-06-26T02:43:01;96540.09;;;18.37;100.00
39243;BME280;29823;47.404;8.566;2023-06-26T02:45:29;96552.97;;;18.55;100.00
39243;BME280;29823;47.404;8.566;2023-06-26T02:47:57;96550.41;;;18.74;100.00
39243;BME280;29823;47.404;8.566;2023-06-26T02:50:26;96549.53;;;18.83;100.00
39243;BME280;29823;47.404;8.566;2023-06-26T02:52:54;96544.69;;;18.80;100.00
39243;BME280;29823;47.404;8.566;2023-06-26T02:55:22;96557.44;;;18.75;100.00
39243;BME280;29823;47.404;8.566;2023-06-26T02:57:50;96564.31;;;18.62;100.00
39243;BME280;29823;47.404;8.566;2023-06-26T03:00:18;96564.13;;;18.49;100.00
39243;BME280;29823;47.404;8.566;2023-06-26T03:02:46;96561.75;;;18.37;100.00
39243;BME280;29823;47.404;8.566;2023-06-26T03:05:14;96559.56;;;18.39;100.00
39243;BME280;29823;47.404;8.566;2023-06-26T03:07:43;96563.00;;;18.55;100.00
39243;BME280;29823;47.404;8.566;2023-06-26T03:10:11;96565.00;;;18.29;100.00
39243;BME280;29823;47.404;8.566;2023-06-26T03:12:38;96574.22;;;18.33;100.00
39243;BME280;29823;47.404;8.566;2023-06-26T03:15:07;96573.75;;;18.11;100.00
39243;BME280;29823;47.404;8.566;2023-06-26T03:17:35;96571.59;;;18.08;100.00
39243;BME280;29823;47.404;8.566;2023-06-26T03:20:04;96559.69;;;18.14;100.00
39243;BME280;29823;47.404;8.566;2023-06-26T03:22:33;96568.53;;;18.30;100.00
39243;BME280;29823;47.404;8.566;2023-06-26T03:25:03;96567.69;;;18.29;100.00
39243;BME280;29823;47.404;8.566;2023-06-26T03:27:31;96567.69;;;18.29;100.00
39243;BME280;29823;47.404;8.566;2023-06-26T03:29:59;96570.41;;;18.29;100.00
39243;BME280;29823;47.404;8.566;2023-06-26T03:32:27;96564.72;;;18.31;100.00
39243;BME280;29823;47.404;8.566;2023-06-26T03:34:55;96567.59;;;17.96;100.00
39243;BME280;29823;47.404;8.566;2023-06-26T03:37:23;96581.63;;;18.03;100.00
39243;BME280;29823;47.404;8.566;2023-06-26T03:39:51;96572.16;;;18.05;100.00
39243;BME280;29823;47.404;8.566;2023-06-26T03:42:20;96577.53;;;18.10;100.00
39243;BME280;29823;47.404;8.566;2023-06-26T03:44:48;96574.00;;;18.15;100.00
39243;BME280;29823;47.404;8.566;2023-06-26T03:47:15;96572.63;;;18.22;100.00
39243;BME280;29823;47.404;8.566;2023-06-26T03:49:43;96572.59;;;18.27;100.00
39243;BME280;29823;47.404;8.566;2023-06-26T03:52:11;96576.63;;;18.40;100.00
39243;BME280;29823;47.404;8.566;2023-06-26T03:54:39;96586.97;;;18.33;100.00
39243;BME280;29823;47.404;8.566;2023-06-26T03:57:07;96580.72;;;18.27;100.00
39243;BME280;29823;47.404;8.566;2023-06-26T03:59:37;96582.31;;;18.28;100.00
39243;BME280;29823;47.404;8.566;2023-06-26T04:02:05;96584.50;;;18.26;100.00
39243;BME280;29823;47.404;8.566;2023-06-26T04:04:33;96582.78;;;18.50;100.00
39243;BME280;29823;47.404;8.566;2023-06-26T04:07:00;96589.34;;;18.29;100.00
39243;BME280;29823;47.404;8.566;2023-06-26T04:09:29;96599.41;;;18.34;100.00
39243;BME280;29823;47.404;8.566;2023-06-26T04:11:56;96589.31;;;18.44;100.00
39243;BME280;29823;47.404;8.566;2023-06-26T04:14:24;96596.88;;;18.52;100.00
39243;BME280;29823;47.404;8.566;2023-06-26T04:16:53;96591.13;;;18.59;100.00
39243;BME280;29823;47.404;8.566;2023-06-26T04:19:21;96595.94;;;18.72;100.00
39243;BME280;29823;47.404;8.566;2023-06-26T04:21:50;96597.00;;;18.76;100.00
39243;BME280;29823;47.404;8.566;2023-06-26T04:24:18;96598.25;;;18.88;100.00
39243;BME280;29823;47.404;8.566;2023-06-26T04:26:46;96583.63;;;18.94;100.00
39243;BME280;29823;47.404;8.566;2023-06-26T04:29:15;96595.41;;;19.08;100.00
39243;BME280;29823;47.404;8.566;2023-06-26T04:31:44;96600.75;;;19.23;100.00
39243;BME280;29823;47.404;8.566;2023-06-26T04:34:14;96596.41;;;19.27;100.00
39243;BME280;29823;47.404;8.566;2023-06-26T04:36:42;96602.78;;;19.41;100.00
39243;BME280;29823;47.404;8.566;2023-06-26T04:39:14;96596.97;;;19.53;100.00
39243;BME280;29823;47.404;8.566;2023-06-26T04:41:42;96597.69;;;19.63;100.00
39243;BME280;29823;47.404;8.566;2023-06-26T04:44:10;96595.41;;;19.75;100.00
39243;BME280;29823;47.404;8.566;2023-06-26T04:46:41;96597.44;;;19.88;100.00
39243;BME280;29823;47.404;8.566;2023-06-26T04:49:10;96598.66;;;20.01;100.00
39243;BME280;29823;47.404;8.566;2023-06-26T04:51:39;96595.00;;;20.15;100.00
39243;BME280;29823;47.404;8.566;2023-06-26T04:54:10;96589.44;;;20.25;100.00
39243;BME280;29823;47.404;8.566;2023-06-26T04:56:38;96599.16;;;20.31;100.00
39243;BME280;29823;47.404;8.566;2023-06-26T04:59:06;96589.47;;;20.44;100.00
39243;BME280;29823;47.404;8.566;2023-06-26T05:01:39;96589.41;;;20.49;100.00
39243;BME280;29823;47.404;8.566;2023-06-26T05:04:07;96596.56;;;20.63;100.00
39243;BME280;29823;47.404;8.566;2023-06-26T05:06:35;96593.47;;;20.70;100.00
39243;BME280;29823;47.404;8.566;2023-06-26T05:09:05;96590.84;;;20.83;100.00
39243;BME280;29823;47.404;8.566;2023-06-26T05:11:36;96591.03;;;20.92;100.00
39243;BME280;29823;47.404;8.566;2023-06-26T05:14:04;96589.28;;;21.14;100.00
39243;BME280;29823;47.404;8.566;2023-06-26T05:16:33;96592.63;;;21.11;100.00
39243;BME280;29823;47.404;8.566;2023-06-26T05:19:03;96576.22;;;21.16;100.00
39243;BME280;29823;47.404;8.566;2023-06-26T05:21:32;96595.69;;;21.23;100.00
39243;BME280;29823;47.404;8.566;2023-06-26T05:24:02;96595.91;;;21.27;100.00
39243;BME280;29823;47.404;8.566;2023-06-26T05:26:34;96601.13;;;21.23;100.00
39243;BME280;29823;47.404;8.566;2023-06-26T05:29:03;96601.38;;;21.40;100.00
39243;BME280;29823;47.404;8.566;2023-06-26T05:31:32;96601.50;;;21.49;100.00
39243;BME280;29823;47.404;8.566;2023-06-26T05:34:03;96594.41;;;21.66;100.00
39243;BME280;29823;47.404;8.566;2023-06-26T05:36:33;96592.13;;;21.73;100.00
39243;BME280;29823;47.404;8.566;2023-06-26T05:39:02;96588.47;;;21.96;100.00
39243;BME280;29823;47.404;8.566;2023-06-26T05:41:30;96588.13;;;21.98;100.00
39243;BME280;29823;47.404;8.566;2023-06-26T05:44:00;96594.72;;;22.10;100.00
39243;BME280;29823;47.404;8.566;2023-06-26T05:46:30;96591.50;;;22.35;100.00
39243;BME280;29823;47.404;8.566;2023-06-26T05:48:58;96588.97;;;22.52;100.00
39243;BME280;29823;47.404;8.566;2023-06-26T05:51:30;96597.53;;;22.59;100.00
39243;BME280;29823;47.404;8.566;2023-06-26T05:53:58;96594.72;;;22.64;100.00
39243;BME280;29823;47.404;8.566;2023-06-26T05:56:26;96588.66;;;22.67;100.00
39243;BME280;29823;47.404;8.566;2023-06-26T05:58:56;96599.41;;;22.99;100.00
39243;BME280;29823;47.404;8.566;2023-06-26T06:01:26;96598.38;;;22.95;100.00
39243;BME280;29823;47.404;8.566;2023-06-26T06:03:54;96591.56;;;23.20;100.00
39243;BME280;29823;47.404;8.566;2023-06-26T06:06:23;96594.72;;;23.35;100.00
39243;BME280;29823;47.404;8.566;2023-06-26T06:08:51;96589.94;;;23.63;100.00
39243;BME280;29823;47.404;8.566;2023-06-26T06:11:20;96586.53;;;23.57;100.00
39243;BME280;29823;47.404;8.566;2023-06-26T06:13:48;96588.22;;;23.89;100.00
39243;BME280;29823;47.404;8.566;2023-06-26T06:16:17;96584.25;;;24.03;100.00
39243;BME280;29823;47.404;8.566;2023-06-26T06:18:46;96585.28;;;23.85;98.88
39243;BME280;29823;47.404;8.566;2023-06-26T06:21:14;96587.53;;;24.22;96.75
39243;BME280;29823;47.404;8.566;2023-06-26T06:23:42;96602.59;;;24.11;96.07
39243;BME280;29823;47.404;8.566;2023-06-26T06:26:14;96583.53;;;24.59;93.83
39243;BME280;29823;47.404;8.566;2023-06-26T06:28:42;96589.63;;;24.64;94.32
39243;BME280;29823;47.404;8.566;2023-06-26T06:31:10;96592.59;;;24.85;91.54
39243;BME280;29823;47.404;8.566;2023-06-26T06:33:40;96583.28;;;25.11;87.25
39243;BME280;29823;47.404;8.566;2023-06-26T06:36:09;96583.94;;;25.42;85.44
39243;BME280;29823;47.404;8.566;2023-06-26T06:38:37;96586.97;;;25.66;82.99
39243;BME280;29823;47.404;8.566;2023-06-26T06:41:05;96585.97;;;25.79;79.04
39243;BME280;29823;47.404;8.566;2023-06-26T06:43:34;96581.47;;;25.75;79.46
39243;BME280;29823;47.404;8.566;2023-06-26T06:46:02;96586.72;;;26.05;76.99
39243;BME280;29823;47.404;8.566;2023-06-26T06:48:30;96554.91;;;26.21;73.27
39243;BME280;29823;47.404;8.566;2023-06-26T06:50:58;96588.22;;;26.40;75.84
39243;BME280;29823;47.404;8.566;2023-06-26T06:53:28;96579.09;;;26.86;73.46
39243;BME280;29823;47.404;8.566;2023-06-26T06:55:56;96582.56;;;26.74;73.99
39243;BME280;29823;47.404;8.566;2023-06-26T06:58:24;96595.06;;;27.13;74.98
39243;BME280;29823;47.404;8.566;2023-06-26T07:00:51;96586.06;;;26.54;70.01
39243;BME280;29823;47.404;8.566;2023-06-26T07:03:21;96597.25;;;27.28;72.28
39243;BME280;29823;47.404;8.566;2023-06-26T07:05:49;96580.91;;;27.31;67.56
39243;BME280;29823;47.404;8.566;2023-06-26T07:08:17;96594.34;;;27.77;64.26
39243;BME280;29823;47.404;8.566;2023-06-26T07:10:47;96585.97;;;27.41;64.34
39243;BME280;29823;47.404;8.566;2023-06-26T07:13:15;96581.09;;;27.59;65.36
39243;BME280;29823;47.404;8.566;2023-06-26T07:15:43;96592.50;;;28.02;63.33
39243;BME280;29823;47.404;8.566;2023-06-26T07:18:11;96596.09;;;28.14;63.72
39243;BME280;29823;47.404;8.566;2023-06-26T07:20:39;96585.56;;;28.16;59.54
39243;BME280;29823;47.404;8.566;2023-06-26T07:23:07;96594.63;;;27.64;60.32
39243;BME280;29823;47.404;8.566;2023-06-26T07:25:36;96578.91;;;28.05;60.13
39243;BME280;29823;47.404;8.566;2023-06-26T07:28:09;96599.25;;;28.04;61.14
39243;BME280;29823;47.404;8.566;2023-06-26T07:30:37;96582.41;;;28.38;63.67
39243;BME280;29823;47.404;8.566;2023-06-26T07:33:06;96592.06;;;28.12;62.59
39243;BME280;29823;47.404;8.566;2023-06-26T07:35:35;96582.09;;;28.07;60.54
39243;BME280;29823;47.404;8.566;2023-06-26T07:38:05;96577.13;;;28.69;58.54
39243;BME280;29823;47.404;8.566;2023-06-26T07:40:33;96570.56;;;28.14;58.03
39243;BME280;29823;47.404;8.566;2023-06-26T07:43:03;96582.41;;;28.98;57.71
39243;BME280;29823;47.404;8.566;2023-06-26T07:45:42;96586.31;;;28.97;54.84
39243;BME280;29823;47.404;8.566;2023-06-26T07:48:21;96587.69;;;28.67;53.65
39243;BME280;29823;47.404;8.566;2023-06-26T07:50:53;96587.13;;;29.37;53.11
39243;BME280;29823;47.404;8.566;2023-06-26T07:53:24;96589.28;;;29.04;52.63
39243;BME280;29823;47.404;8.566;2023-06-26T07:55:55;96571.81;;;29.12;52.25
39243;BME280;29823;47.404;8.566;2023-06-26T07:58:25;96591.22;;;28.92;51.27
39243;BME280;29823;47.404;8.566;2023-06-26T08:00:56;96597.53;;;28.68;50.62
39243;BME280;29823;47.404;8.566;2023-06-26T08:03:28;96600.53;;;28.87;50.91
39243;BME280;29823;47.404;8.566;2023-06-26T08:06:01;96590.22;;;28.60;49.99
39243;BME280;29823;47.404;8.566;2023-06-26T08:08:31;96589.59;;;29.27;50.03
39243;BME280;29823;47.404;8.566;2023-06-26T08:11:02;96587.38;;;29.32;50.37
39243;BME280;29823;47.404;8.566;2023-06-26T08:13:31;96581.84;;;29.72;50.54
39243;BME280;29823;47.404;8.566;2023-06-26T08:16:01;96595.13;;;29.54;48.07
39243;BME280;29823;47.404;8.566;2023-06-26T08:18:32;96582.16;;;29.03;49.41
39243;BME280;29823;47.404;8.566;2023-06-26T08:21:00;96592.47;;;29.18;48.91
39243;BME280;29823;47.404;8.566;2023-06-26T08:23:27;96592.16;;;29.47;48.52
39243;BME280;29823;47.404;8.566;2023-06-26T08:25:55;96591.56;;;29.81;47.77
39243;BME280;29823;47.404;8.566;2023-06-26T08:28:25;96566.19;;;29.48;48.11
39243;BME280;29823;47.404;8.566;2023-06-26T08:30:53;96589.56;;;29.66;49.00
39243;BME280;29823;47.404;8.566;2023-06-26T08:33:23;96584.84;;;30.37;48.65
39243;BME280;29823;47.404;8.566;2023-06-26T08:35:51;96582.94;;;30.10;48.00
39243;BME280;29823;47.404;8.566;2023-06-26T08:38:19;96587.31;;;29.44;47.14
39243;BME280;29823;47.404;8.566;2023-06-26T08:40:48;96584.00;;;30.52;47.42
39243;BME280;29823;47.404;8.566;2023-06-26T08:43:16;96575.47;;;30.88;49.13
39243;BME280;29823;47.404;8.566;2023-06-26T08:45:44;96587.66;;;30.25;45.99
39243;BME280;29823;47.404;8.566;2023-06-26T08:48:13;96583.47;;;30.62;45.43
39243;BME280;29823;47.404;8.566;2023-06-26T08:50:43;96580.44;;;31.17;45.89
39243;BME280;29823;47.404;8.566;2023-06-26T08:53:21;96577.78;;;31.93;45.35
39243;BME280;29823;47.404;8.566;2023-06-26T08:55:52;96587.22;;;31.35;45.91
39243;BME280;29823;47.404;8.566;2023-06-26T08:58:27;96583.44;;;31.81;45.94
39243;BME280;29823;47.404;8.566;2023-06-26T09:00:55;96585.84;;;31.26;45.52
39243;BME280;29823;47.404;8.566;2023-06-26T09:03:23;96593.03;;;31.68;44.47
39243;BME280;29823;47.404;8.566;2023-06-26T09:05:57;96583.69;;;32.33;43.95
39243;BME280;29823;47.404;8.566;2023-06-26T09:08:26;96562.41;;;32.18;44.91
39243;BME280;29823;47.404;8.566;2023-06-26T09:10:54;96573.69;;;32.74;43.96
39243;BME280;29823;47.404;8.566;2023-06-26T09:13:22;96580.66;;;32.64;44.77
39243;BME280;29823;47.404;8.566;2023-06-26T09:15:56;96585.47;;;32.03;43.89
39243;BME280;29823;47.404;8.566;2023-06-26T09:18:24;96578.31;;;32.21;41.93
39243;BME280;29823;47.404;8.566;2023-06-26T09:20:52;96566.41;;;31.41;43.60
39243;BME280;29823;47.404;8.566;2023-06-26T09:23:23;96572.47;;;32.49;44.55
39243;BME280;29823;47.404;8.566;2023-06-26T09:25:57;96573.66;;;33.52;41.72
39243;BME280;29823;47.404;8.566;2023-06-26T09:28:28;96587.97;;;33.83;41.75
39243;BME280;29823;47.404;8.566;2023-06-26T09:31:00;96571.72;;;33.52;41.06
39243;BME280;29823;47.404;8.566;2023-06-26T09:33:34;96573.38;;;32.56;42.56
39243;BME280;29823;47.404;8.566;2023-06-26T09:36:07;96572.88;;;33.81;40.23
39243;BME280;29823;47.404;8.566;2023-06-26T09:38:37;96577.25;;;33.52;40.14
39243;BME280;29823;47.404;8.566;2023-06-26T09:41:05;96572.88;;;33.81;41.44
39243;BME280;29823;47.404;8.566;2023-06-26T09:43:45;96546.84;;;33.92;41.40
39243;BME280;29823;47.404;8.566;2023-06-26T09:46:15;96566.56;;;34.60;39.14
39243;BME280;29823;47.404;8.566;2023-06-26T09:48:43;96566.16;;;34.58;38.77
39243;BME280;29823;47.404;8.566;2023-06-26T09:51:11;96576.06;;;33.53;40.41
39243;BME280;29823;47.404;8.566;2023-06-26T09:53:48;96559.88;;;34.25;39.52
39243;BME280;29823;47.404;8.566;2023-06-26T09:56:17;96569.47;;;33.94;38.08
39243;BME280;29823;47.404;8.566;2023-06-26T09:58:45;96565.88;;;34.74;38.42
39243;BME280;29823;47.404;8.566;2023-06-26T10:01:15;96554.91;;;35.52;38.44
39243;BME280;29823;47.404;8.566;2023-06-26T10:03:43;96552.28;;;34.58;38.27
39243;BME280;29823;47.404;8.566;2023-06-26T10:06:14;96546.31;;;35.10;37.22
39243;BME280;29823;47.404;8.566;2023-06-26T10:08:47;96546.38;;;34.23;36.76
39243;BME280;29823;47.404;8.566;2023-06-26T10:11:19;96548.78;;;33.55;38.22
39243;BME280;29823;47.404;8.566;2023-06-26T10:13:50;96537.69;;;33.55;39.42
39243;BME280;29823;47.404;8.566;2023-06-26T10:16:36;96544.56;;;34.01;39.89
39243;BME280;29823;47.404;8.566;2023-06-26T10:19:07;96531.28;;;34.24;38.84
39243;BME280;29823;47.404;8.566;2023-06-26T10:21:36;96544.91;;;33.63;38.41
39243;BME280;29823;47.404;8.566;2023-06-26T10:24:12;96526.47;;;35.15;36.03
39243;BME280;29823;47.404;8.566;2023-06-26T10:26:44;96546.03;;;33.88;36.89
39243;BME280;29823;47.404;8.566;2023-06-26T10:29:15;96539.72;;;35.32;38.06
39243;BME280;29823;47.404;8.566;2023-06-26T10:31:50;96543.50;;;35.71;36.95
39243;BME280;29823;47.404;8.566;2023-06-26T10:34:21;96540.63;;;35.64;36.63
39243;BME280;29823;47.404;8.566;2023-06-26T10:36:58;96543.81;;;34.91;35.26
39243;BME280;29823;47.404;8.566;2023-06-26T10:39:45;96545.47;;;34.52;36.59
39243;BME280;29823;47.404;8.566;2023-06-26T10:42:19;96545.59;;;34.66;37.82
39243;BME280;29823;47.404;8.566;2023-06-26T10:44:48;96544.94;;;34.36;39.57
39243;BME280;29823;47.404;8.566;2023-06-26T10:47:30;96534.09;;;34.71;36.42
39243;BME280;29823;47.404;8.566;2023-06-26T10:50:20;96541.56;;;35.89;35.29
39243;BME280;29823;47.404;8.566;2023-06-26T10:53:21;96536.84;;;35.18;34.93
39243;BME280;29823;47.404;8.566;2023-06-26T10:56:02;96539.63;;;36.11;34.81
39243;BME280;29823;47.404;8.566;2023-06-26T10:58:39;96536.13;;;36.91;34.26
39243;BME280;29823;47.404;8.566;2023-06-26T11:01:21;96543.66;;;36.20;35.39
39243;BME280;29823;47.404;8.566;2023-06-26T11:04:00;96543.69;;;36.62;35.16
39243;BME280;29823;47.404;8.566;2023-06-26T11:06:32;96538.06;;;37.29;35.36
39243;BME280;29823;47.404;8.566;2023-06-26T11:09:06;96539.81;;;35.53;33.95
39243;BME280;29823;47.404;8.566;2023-06-26T11:11:58;96545.25;;;36.98;32.75
39243;BME280;29823;47.404;8.566;2023-06-26T11:14:32;96532.28;;;35.57;33.64
39243;BME280;29823;47.404;8.566;2023-06-26T11:17:04;96532.88;;;36.12;33.08
39243;BME280;29823;47.404;8.566;2023-06-26T11:19:32;96537.13;;;35.74;34.27
39243;BME280;29823;47.404;8.566;2023-06-26T11:22:04;96522.59;;;34.69;34.82
39243;BME280;29823;47.404;8.566;2023-06-26T11:24:33;96531.56;;;33.13;35.42
39243;BME280;29823;47.404;8.566;2023-06-26T11:27:04;96535.41;;;34.34;37.14
39243;BME280;29823;47.404;8.566;2023-06-26T11:29:37;96509.78;;;35.08;34.68
39243;BME280;29823;47.404;8.566;2023-06-26T11:32:07;96532.53;;;36.83;34.04
39243;BME280;29823;47.404;8.566;2023-06-26T11:34:37;96531.06;;;37.89;34.79
39243;BME280;29823;47.404;8.566;2023-06-26T11:37:05;96537.16;;;39.67;30.53
39243;BME280;29823;47.404;8.566;2023-06-26T11:39:35;96533.09;;;35.61;33.79
39243;BME280;29823;47.404;8.566;2023-06-26T11:42:05;96544.13;;;38.10;32.31
39243;BME280;29823;47.404;8.566;2023-06-26T11:44:39;96544.84;;;37.24;32.97
39243;BME280;29823;47.404;8.566;2023-06-26T11:47:08;96539.59;;;35.97;34.55
39243;BME280;29823;47.404;8.566;2023-06-26T11:49:42;96546.06;;;36.32;35.43
39243;BME280;29823;47.404;8.566;2023-06-26T11:52:10;96550.44;;;36.51;36.31
39243;BME280;29823;47.404;8.566;2023-06-26T11:54:38;96545.53;;;35.10;38.74
39243;BME280;29823;47.404;8.566;2023-06-26T11:57:08;96545.25;;;37.30;36.09
39243;BME280;29823;47.404;8.566;2023-06-26T11:59:41;96547.34;;;38.08;37.14
39243;BME280;29823;47.404;8.566;2023-06-26T12:02:10;96536.28;;;37.87;35.02
39243;BME280;29823;47.404;8.566;2023-06-26T12:04:39;96537.13;;;38.93;33.24
39243;BME280;29823;47.404;8.566;2023-06-26T12:07:09;96547.28;;;35.39;37.22
39243;BME280;29823;47.404;8.566;2023-06-26T12:09:39;96537.00;;;33.98;39.07
39243;BME280;29823;47.404;8.566;2023-06-26T12:12:10;96543.78;;;34.84;39.97
39243;BME280;29823;47.404;8.566;2023-06-26T12:14:39;96535.91;;;34.06;41.05
39243;BME280;29823;47.404;8.566;2023-06-26T12:17:09;96553.72;;;35.53;39.23
39243;BME280;29823;47.404;8.566;2023-06-26T12:19:38;96546.47;;;36.48;38.36
39243;BME280;29823;47.404;8.566;2023-06-26T12:22:07;96548.28;;;35.78;38.87
39243;BME280;29823;47.404;8.566;2023-06-26T12:24:37;96552.06;;;33.09;42.68
39243;BME280;29823;47.404;8.566;2023-06-26T12:27:11;96553.69;;;32.16;45.12
39243;BME280;29823;47.404;8.566;2023-06-26T12:29:47;96565.81;;;33.02;43.89
39243;BME280;29823;47.404;8.566;2023-06-26T12:32:18;96545.31;;;31.90;45.50
39243;BME280;29823;47.404;8.566;2023-06-26T12:34:48;96552.53;;;31.38;46.12
39243;BME280;29823;47.404;8.566;2023-06-26T12:37:19;96557.09;;;31.49;45.63
39243;BME280;29823;47.404;8.566;2023-06-26T12:39:49;96565.25;;;31.23;45.37
39243;BME280;29823;47.404;8.566;2023-06-26T12:42:19;96557.63;;;31.55;46.01
39243;BME280;29823;47.404;8.566;2023-06-26T12:44:48;96550.19;;;31.78;45.34
39243;BME280;29823;47.404;8.566;2023-06-26T12:47:17;96553.97;;;31.70;44.29
39243;BME280;29823;47.404;8.566;2023-06-26T12:49:49;96546.88;;;31.15;45.17
39243;BME280;29823;47.404;8.566;2023-06-26T12:52:17;96558.28;;;30.33;45.76
39243;BME280;29823;47.404;8.566;2023-06-26T12:54:47;96552.00;;;31.32;45.16
39243;BME280;29823;47.404;8.566;2023-06-26T12:57:20;96562.88;;;32.20;43.29
39243;BME280;29823;47.404;8.566;2023-06-26T12:59:48;96555.50;;;32.50;42.60
39243;BME280;29823;47.404;8.566;2023-06-26T13:02:16;96555.16;;;33.59;41.15
39243;BME280;29823;47.404;8.566;2023-06-26T13:04:45;96551.38;;;33.15;41.91
39243;BME280;29823;47.404;8.566;2023-06-26T13:07:13;96562.44;;;32.63;41.75
39243;BME280;29823;47.404;8.566;2023-06-26T13:09:41;96547.22;;;32.09;42.00